Time;durP1;ratioP1;P1;durP2;ratioP2;P2;SDS_P1;SDS_P2;PMS_P1;PMS_P2;Temp;Humidity;BMP_temperature;BMP_pressure;BME280_temperature;BME280_humidity;BME280_pressure;Samples;Min_cycle;Max_cycle;Signal;HPM_P1;HPM_P2
2023/08/31 00:00:29;;;;;;;0.53;0.53;;;;;;;15.40;87.67;94906.81;4321577;32;20190;-66
2023/08/31 00:02:55;;;;;;;0.20;0.20;;;;;;;15.41;87.59;94897.69;4324294;32;20216;-66
2023/08/31 00:05:20;;;;;;;0.30;0.30;;;;;;;15.43;87.78;94906.16;4314591;32;20296;-66
2023/08/31 00:07:46;;;;;;;0.30;0.30;;;;;;;15.43;87.14;94906.94;4317310;32;20212;-66
2023/08/31 00:10:11;;;;;;;0.30;0.30;;;;;;;15.39;87.46;94905.25;4316946;33;20194;-66
2023/08/31 00:12:37;;;;;;;0.67;0.67;;;;;;;15.36;87.26;94903.28;4328863;32;20194;-65
2023/08/31 00:15:04;;;;;;;0.60;0.60;;;;;;;15.16;88.16;94901.47;4328896;32;20193;-66
2023/08/31 00:17:30;;;;;;;0.40;0.40;;;;;;;15.30;87.96;94907.28;4331128;32;20253;-66
2023/08/31 00:19:55;;;;;;;0.47;0.47;;;;;;;15.33;88.05;94906.62;4327219;32;20204;-66
2023/08/31 00:22:21;;;;;;;0.60;0.60;;;;;;;15.00;87.92;94912.78;4316638;32;20273;-66
2023/08/31 00:24:46;;;;;;;0.40;0.40;;;;;;;15.08;87.85;94906.59;4330349;32;20193;-66
2023/08/31 00:27:14;;;;;;;0.50;0.50;;;;;;;14.97;88.45;94905.44;4330900;32;20259;-66
2023/08/31 00:29:39;;;;;;;1.50;0.97;;;;;;;15.01;88.17;94909.00;4329442;32;20259;-66
2023/08/31 00:32:05;;;;;;;0.70;0.70;;;;;;;14.89;88.98;94911.66;4327421;32;20194;-66
2023/08/31 00:34:31;;;;;;;0.30;0.30;;;;;;;14.84;89.24;94909.19;4332234;32;20223;-65
2023/08/31 00:36:56;;;;;;;0.20;0.20;;;;;;;15.02;88.33;94915.13;4316915;32;20190;-65
2023/08/31 00:39:21;;;;;;;0.43;0.43;;;;;;;15.09;87.79;94916.16;4330092;32;20197;-65
2023/08/31 00:41:47;;;;;;;0.40;0.40;;;;;;;14.98;88.38;94917.69;4316987;32;20265;-65
2023/08/31 00:44:13;;;;;;;0.30;0.30;;;;;;;15.05;88.34;94914.47;4328718;32;20248;-66
2023/08/31 00:46:40;;;;;;;0.43;0.43;;;;;;;15.01;87.70;94916.25;4330370;32;20209;-65
2023/08/31 00:49:05;;;;;;;0.67;0.67;;;;;;;14.97;87.30;94926.03;4316627;32;20194;-65
2023/08/31 00:51:31;;;;;;;0.70;0.70;;;;;;;15.07;86.63;94918.38;4331094;32;20197;-66
2023/08/31 00:53:58;;;;;;;0.60;0.60;;;;;;;15.04;86.74;94921.72;4329364;32;20204;-66
2023/08/31 00:56:24;;;;;;;0.30;0.30;;;;;;;15.15;86.76;94923.97;4325408;32;20249;-65
2023/08/31 00:58:49;;;;;;;0.30;0.30;;;;;;;14.94;86.66;94919.47;4326508;32;20186;-65
2023/08/31 01:01:25;;;;;;;0.47;0.47;;;;;;;14.95;86.30;94923.72;4323239;32;20248;-66
2023/08/31 01:03:58;;;;;;;0.70;0.70;;;;;;;14.92;87.18;94924.37;4331580;32;20227;-65
2023/08/31 01:06:41;;;;;;;0.67;0.67;;;;;;;14.85;87.38;94924.13;4331621;32;20208;-65
2023/08/31 01:09:26;;;;;;;0.53;0.53;;;;;;;14.99;86.91;94921.12;4319613;32;20212;-66
2023/08/31 01:12:06;;;;;;;1.33;0.90;;;;;;;15.05;86.51;94915.25;4333024;32;20299;-65
2023/08/31 01:14:42;;;;;;;0.50;0.50;;;;;;;14.91;86.06;94919.34;4331065;32;20205;-66
2023/08/31 01:17:11;;;;;;;0.20;0.20;;;;;;;14.95;86.46;94915.69;4331024;32;20257;-66
2023/08/31 01:19:48;;;;;;;0.67;0.67;;;;;;;14.86;86.65;94914.22;4331077;32;20185;-66
2023/08/31 01:22:21;;;;;;;0.77;0.77;;;;;;;15.01;86.23;94911.69;4330824;32;20199;-65
2023/08/31 01:24:47;;;;;;;0.60;0.60;;;;;;;14.99;85.52;94919.25;4331642;32;20245;-66
2023/08/31 01:27:13;;;;;;;0.50;0.50;;;;;;;14.94;85.79;94921.38;4329012;32;20276;-65
2023/08/31 01:29:38;;;;;;;0.50;0.50;;;;;;;15.03;85.58;94908.69;4331594;32;20190;-66
2023/08/31 01:32:07;;;;;;;0.40;0.40;;;;;;;14.96;86.02;94917.25;4331597;32;20205;-66
2023/08/31 01:34:33;;;;;;;0.47;0.47;;;;;;;15.04;85.51;94915.59;4331691;32;20236;-66
2023/08/31 01:37:03;;;;;;;0.63;0.63;;;;;;;15.01;85.20;94922.38;4332642;32;20203;-65
2023/08/31 01:39:45;;;;;;;1.10;0.57;;;;;;;14.95;85.67;94917.59;4333111;32;20189;-65
2023/08/31 01:42:13;;;;;;;0.50;0.50;;;;;;;15.08;85.60;94916.50;4318706;32;20212;-66
2023/08/31 01:44:39;;;;;;;0.53;0.53;;;;;;;15.12;85.50;94926.19;4318744;32;20216;-66
2023/08/31 01:47:06;;;;;;;0.47;0.47;;;;;;;15.06;85.78;94924.84;4332282;32;20190;-66
2023/08/31 01:49:40;;;;;;;0.40;0.40;;;;;;;15.17;85.52;94932.44;4332388;32;20214;-66
2023/08/31 01:52:06;;;;;;;0.60;0.60;;;;;;;15.21;86.08;94925.28;4331191;32;20192;-66
2023/08/31 01:54:32;;;;;;;0.60;0.60;;;;;;;15.25;86.31;94926.97;4332169;32;20177;-66
2023/08/31 01:56:58;;;;;;;0.83;0.83;;;;;;;15.34;85.67;94921.53;4331150;32;20241;-65
2023/08/31 01:59:23;;;;;;;0.40;0.40;;;;;;;15.29;85.80;94930.56;4332392;32;20173;-66
2023/08/31 02:01:48;;;;;;;0.70;0.70;;;;;;;15.30;86.10;94928.66;4318174;32;20182;-65
2023/08/31 02:04:13;;;;;;;0.40;0.40;;;;;;;15.23;86.29;94925.75;4331975;32;20186;-65
2023/08/31 02:06:39;;;;;;;1.53;0.80;;;;;;;15.19;86.71;94930.19;4332110;32;20233;-65
2023/08/31 02:09:05;;;;;;;1.00;1.00;;;;;;;15.24;86.56;94930.75;4328426;32;20185;-66
2023/08/31 02:11:31;;;;;;;0.13;0.13;;;;;;;15.31;86.31;94933.69;4331656;32;20204;-65
2023/08/31 02:13:57;;;;;;;0.87;0.50;;;;;;;15.16;86.87;94937.00;4325088;32;20217;-65
2023/08/31 02:16:22;;;;;;;0.50;0.50;;;;;;;15.09;87.29;94937.53;4329798;32;20193;-65
2023/08/31 02:18:48;;;;;;;0.67;0.67;;;;;;;15.19;86.99;94941.66;4318812;32;20190;-65
2023/08/31 02:21:13;;;;;;;0.57;0.57;;;;;;;15.07;86.56;94942.44;4332059;32;20194;-66
2023/08/31 02:23:38;;;;;;;2.60;0.87;;;;;;;15.22;86.27;94940.22;4327876;32;20256;-65
2023/08/31 02:26:04;;;;;;;0.83;0.83;;;;;;;15.15;87.15;94954.16;4331690;32;20181;-65
2023/08/31 02:28:29;;;;;;;0.70;0.70;;;;;;;15.29;86.92;94959.16;4332397;32;20186;-65
2023/08/31 02:30:59;;;;;;;0.50;0.50;;;;;;;14.97;87.87;94964.19;4331579;32;20185;-66
2023/08/31 02:33:25;;;;;;;0.30;0.30;;;;;;;14.89;88.20;94975.78;4330363;32;20204;-66
2023/08/31 02:35:50;;;;;;;0.40;0.40;;;;;;;15.06;87.92;94978.28;4330753;32;20194;-65
2023/08/31 02:38:15;;;;;;;0.60;0.60;;;;;;;15.07;88.16;94995.84;4330423;32;20194;-65
2023/08/31 02:40:41;;;;;;;0.97;0.97;;;;;;;15.00;90.52;95006.28;4329616;32;20190;-65
2023/08/31 02:43:07;;;;;;;0.40;0.40;;;;;;;14.90;93.07;95001.37;4328661;32;20198;-65
2023/08/31 02:45:32;;;;;;;0.80;0.80;;;;;;;14.75;94.61;95016.13;4329732;32;20237;-66
2023/08/31 02:47:58;;;;;;;0.33;0.33;;;;;;;14.55;96.38;95013.44;4333901;32;20205;-65
2023/08/31 02:50:23;;;;;;;1.97;1.83;;;;;;;14.66;96.25;95012.72;4330983;32;20189;-65
2023/08/31 02:52:48;;;;;;;0.57;0.57;;;;;;;14.83;96.13;94990.44;4327845;32;20244;-65
2023/08/31 02:55:14;;;;;;;0.50;0.50;;;;;;;14.76;96.60;95006.19;4314452;32;20229;-64
2023/08/31 02:57:39;;;;;;;0.90;0.70;;;;;;;14.65;97.46;94999.69;4329828;32;20256;-64
2023/08/31 03:00:08;;;;;;;1.33;1.23;;;;;;;14.53;98.50;95007.66;4331249;32;20229;-64
2023/08/31 03:02:34;;;;;;;0.60;0.60;;;;;;;14.52;98.51;95012.22;4331065;32;20243;-64
2023/08/31 03:05:01;;;;;;;1.20;1.17;;;;;;;14.58;99.03;95018.13;4331325;32;20198;-65
2023/08/31 03:07:26;;;;;;;0.90;0.90;;;;;;;14.58;99.27;95015.44;4331682;32;20194;-64
2023/08/31 03:09:52;;;;;;;0.90;0.90;;;;;;;14.40;99.99;94998.75;4331261;32;20216;-65
2023/08/31 03:12:17;;;;;;;0.60;0.60;;;;;;;14.23;100.00;94993.53;4329740;32;20228;-64
2023/08/31 03:14:43;;;;;;;7.33;1.37;;;;;;;14.47;100.00;94999.06;4326985;32;20233;-65
2023/08/31 03:17:08;;;;;;;0.63;0.63;;;;;;;14.37;100.00;94997.50;4325597;32;20190;-65
2023/08/31 03:19:33;;;;;;;2.17;1.23;;;;;;;14.27;100.00;95000.56;4327341;32;20182;-64
2023/08/31 03:21:59;;;;;;;6.33;1.37;;;;;;;14.17;100.00;95002.81;4330403;32;20189;-64
2023/08/31 03:24:24;;;;;;;0.90;0.90;;;;;;;14.17;100.00;95000.16;4329267;32;20194;-65
2023/08/31 03:26:49;;;;;;;0.83;0.83;;;;;;;14.15;100.00;95002.34;4330226;32;20301;-64
2023/08/31 03:29:15;;;;;;;0.40;0.40;;;;;;;14.29;100.00;95017.03;4317305;32;20245;-64
2023/08/31 03:31:40;;;;;;;0.93;0.93;;;;;;;14.18;100.00;95013.16;4331116;32;20212;-64
2023/08/31 03:34:05;;;;;;;0.40;0.40;;;;;;;14.05;99.91;95009.66;4331012;32;20193;-65
2023/08/31 03:36:31;;;;;;;0.43;0.43;;;;;;;14.17;99.98;95011.59;4331342;32;20221;-65
2023/08/31 03:38:56;;;;;;;0.50;0.50;;;;;;;14.33;99.47;95009.97;4331706;32;20209;-64
2023/08/31 03:41:21;;;;;;;0.43;0.43;;;;;;;14.40;98.88;95012.91;4330975;32;20220;-64
2023/08/31 03:43:47;;;;;;;0.40;0.40;;;;;;;14.37;98.21;95010.06;4320813;32;20230;-64
2023/08/31 03:46:12;;;;;;;0.97;0.97;;;;;;;14.36;98.81;95030.63;4323201;32;20228;-65
2023/08/31 03:48:37;;;;;;;0.67;0.67;;;;;;;14.23;98.93;95031.66;4329479;32;20198;-65
2023/08/31 03:51:03;;;;;;;0.40;0.40;;;;;;;14.05;99.58;95033.66;4326662;32;20296;-65
2023/08/31 03:53:29;;;;;;;0.30;0.30;;;;;;;14.25;99.00;95040.13;4331284;32;20235;-65
2023/08/31 03:55:54;;;;;;;0.40;0.40;;;;;;;14.12;99.32;95041.16;4330623;32;20244;-64
2023/08/31 03:58:19;;;;;;;0.43;0.43;;;;;;;13.92;99.54;95041.88;4331020;32;20205;-64
2023/08/31 04:00:49;;;;;;;0.50;0.50;;;;;;;14.04;99.82;95039.31;4330654;32;20186;-65
2023/08/31 04:03:14;;;;;;;0.30;0.30;;;;;;;14.22;99.30;95045.31;4331012;32;20251;-65
2023/08/31 04:05:39;;;;;;;1.27;0.97;;;;;;;14.12;98.49;95041.16;4331047;32;20193;-65
2023/08/31 04:08:05;;;;;;;0.30;0.30;;;;;;;14.01;98.99;95051.41;4321377;32;20256;-65
2023/08/31 04:10:31;;;;;;;0.47;0.47;;;;;;;14.15;99.12;95047.72;4330802;32;20233;-65
2023/08/31 04:12:57;;;;;;;0.57;0.57;;;;;;;14.05;99.29;95056.88;4331330;32;20186;-65
2023/08/31 04:15:23;;;;;;;0.57;0.57;;;;;;;14.12;98.74;95051.84;4317164;32;20216;-65
2023/08/31 04:17:49;;;;;;;2.10;0.70;;;;;;;14.16;99.13;95050.06;4329241;32;20200;-65
2023/08/31 04:20:15;;;;;;;0.53;0.53;;;;;;;14.09;99.51;95047.13;4326796;32;20185;-65
2023/08/31 04:22:40;;;;;;;0.30;0.30;;;;;;;14.26;99.09;95051.59;4326727;32;20220;-65
2023/08/31 04:25:06;;;;;;;1.07;1.07;;;;;;;14.20;99.17;95056.31;4330840;32;20189;-65
2023/08/31 04:27:31;;;;;;;0.60;0.60;;;;;;;14.15;99.51;95067.16;4326853;32;20261;-66
2023/08/31 04:29:59;;;;;;;0.80;0.80;;;;;;;14.17;99.27;95062.28;4329251;32;20197;-64
2023/08/31 04:32:25;;;;;;;0.43;0.43;;;;;;;14.24;98.81;95069.81;4316814;32;20194;-65
2023/08/31 04:34:51;;;;;;;0.50;0.50;;;;;;;14.14;99.13;95073.59;4330648;32;20220;-65
2023/08/31 04:37:16;;;;;;;0.67;0.67;;;;;;;14.08;99.68;95062.34;4330748;32;20201;-65
2023/08/31 04:39:42;;;;;;;0.30;0.30;;;;;;;14.09;99.48;95065.81;4329050;32;20197;-65
2023/08/31 04:42:07;;;;;;;0.37;0.37;;;;;;;14.27;99.16;95077.94;4331936;32;20244;-64
2023/08/31 04:44:32;;;;;;;0.10;0.10;;;;;;;14.23;99.09;95086.91;4333006;32;20233;-65
2023/08/31 04:46:58;;;;;;;0.50;0.50;;;;;;;14.29;99.18;95093.66;4333951;32;20190;-65
2023/08/31 04:49:23;;;;;;;0.83;0.83;;;;;;;14.25;99.06;95103.38;4333322;32;20232;-65
2023/08/31 04:51:48;;;;;;;0.30;0.30;;;;;;;14.30;99.11;95095.22;4332665;32;20221;-64
2023/08/31 04:54:13;;;;;;;0.47;0.47;;;;;;;14.37;98.91;95101.59;4333253;32;20194;-64
2023/08/31 04:56:39;;;;;;;0.40;0.40;;;;;;;14.36;98.78;95102.69;4332949;32;20241;-65
2023/08/31 04:59:04;;;;;;;0.37;0.37;;;;;;;14.46;98.62;95098.13;4332040;32;20205;-65
2023/08/31 05:01:30;;;;;;;0.60;0.60;;;;;;;14.49;98.55;95102.81;4334694;32;20186;-64
2023/08/31 05:03:55;;;;;;;0.70;0.70;;;;;;;14.55;98.27;95106.88;4332475;32;20252;-65
2023/08/31 05:06:20;;;;;;;0.33;0.33;;;;;;;14.59;97.99;95113.13;4336164;32;20249;-64
2023/08/31 05:08:49;;;;;;;0.20;0.20;;;;;;;14.55;98.13;95112.22;4329411;32;20194;-65
2023/08/31 05:11:14;;;;;;;0.60;0.60;;;;;;;14.40;98.66;95103.66;4329697;32;20204;-65
2023/08/31 05:13:42;;;;;;;0.23;0.23;;;;;;;14.66;98.42;95114.19;4332580;32;20205;-64
2023/08/31 05:16:08;;;;;;;0.83;0.67;;;;;;;14.54;98.68;95116.00;4331111;32;20189;-65
2023/08/31 05:18:33;;;;;;;0.50;0.50;;;;;;;14.39;99.44;95114.63;4332728;32;20224;-64
2023/08/31 05:20:58;;;;;;;0.67;0.67;;;;;;;14.50;98.76;95107.84;4332704;32;20243;-65
2023/08/31 05:23:24;;;;;;;0.50;0.50;;;;;;;14.50;99.25;95115.06;4329041;32;20185;-65
2023/08/31 05:25:49;;;;;;;0.37;0.37;;;;;;;14.23;99.85;95111.72;4329886;32;20261;-65
2023/08/31 05:28:14;;;;;;;0.77;0.77;;;;;;;14.20;99.92;95108.91;4330060;32;20197;-65
2023/08/31 05:30:51;;;;;;;0.70;0.70;;;;;;;14.43;99.77;95119.03;4329357;32;20197;-64
2023/08/31 05:33:17;;;;;;;0.50;0.50;;;;;;;14.49;99.26;95121.50;4317866;32;20216;-64
2023/08/31 05:35:43;;;;;;;0.80;0.80;;;;;;;14.48;99.46;95122.63;4328696;32;20220;-64
2023/08/31 05:38:08;;;;;;;1.43;1.17;;;;;;;14.64;99.11;95120.94;4328094;32;20194;-65
2023/08/31 05:40:33;;;;;;;0.73;0.73;;;;;;;14.56;98.94;95111.88;4323903;32;20185;-65
2023/08/31 05:42:58;;;;;;;0.90;0.90;;;;;;;14.75;98.07;95124.81;4344232;32;20228;-64
2023/08/31 05:45:24;;;;;;;0.80;0.80;;;;;;;14.65;98.41;95138.53;4332276;32;20198;-65
2023/08/31 05:47:49;;;;;;;0.83;0.80;;;;;;;14.59;98.67;95137.16;4326901;32;20197;-65
2023/08/31 05:50:15;;;;;;;0.60;0.60;;;;;;;14.63;98.95;95140.75;4331748;32;20201;-65
2023/08/31 05:52:43;;;;;;;15.67;1.33;;;;;;;14.68;99.11;95145.91;4332388;32;20244;-65
2023/08/31 05:55:09;;;;;;;0.80;0.80;;;;;;;14.65;98.97;95142.00;4332442;32;20194;-65
2023/08/31 05:57:35;;;;;;;0.73;0.73;;;;;;;14.65;98.98;95149.22;4332699;32;20208;-65
2023/08/31 06:00:00;;;;;;;0.80;0.80;;;;;;;14.52;99.83;95148.34;4333963;32;20198;-65
2023/08/31 06:02:25;;;;;;;1.40;1.30;;;;;;;14.63;98.86;95151.41;4331141;32;20249;-65
2023/08/31 06:04:50;;;;;;;0.97;0.70;;;;;;;14.74;98.24;95147.28;4331259;32;20268;-64
2023/08/31 06:07:16;;;;;;;0.93;0.93;;;;;;;14.82;97.78;95151.00;4331986;32;20201;-65
2023/08/31 06:09:41;;;;;;;1.33;1.27;;;;;;;14.69;98.26;95164.28;4332194;32;20190;-65
2023/08/31 06:12:08;;;;;;;1.07;0.80;;;;;;;14.74;98.35;95171.31;4337568;32;20216;-65
2023/08/31 06:14:33;;;;;;;0.83;0.83;;;;;;;14.99;95.87;95170.34;4340462;32;20260;-64
2023/08/31 06:16:58;;;;;;;0.80;0.80;;;;;;;15.03;95.71;95165.94;4333826;32;20212;-65
2023/08/31 06:19:24;;;;;;;0.70;0.70;;;;;;;15.02;96.16;95171.59;4332156;32;20185;-65
2023/08/31 06:21:49;;;;;;;0.80;0.80;;;;;;;14.97;96.28;95163.78;4332226;32;20229;-65
2023/08/31 06:24:14;;;;;;;0.70;0.70;;;;;;;14.80;97.33;95175.34;4339280;32;20189;-65
2023/08/31 06:26:40;;;;;;;0.53;0.53;;;;;;;14.78;98.14;95180.22;4331993;32;20227;-65
2023/08/31 06:29:05;;;;;;;1.47;1.37;;;;;;;14.77;98.44;95178.66;4331954;32;20252;-65
2023/08/31 06:31:31;;;;;;;0.67;0.67;;;;;;;14.89;97.51;95181.44;4339660;32;20193;-64
2023/08/31 06:33:56;;;;;;;1.40;1.40;;;;;;;14.97;96.95;95180.59;4330993;32;20300;-64
2023/08/31 06:36:23;;;;;;;0.90;0.90;;;;;;;14.97;97.21;95167.22;4328553;32;20267;-65
2023/08/31 06:38:48;;;;;;;0.80;0.80;;;;;;;15.14;96.96;95174.38;4331912;32;20204;-64
2023/08/31 06:41:15;;;;;;;0.70;0.70;;;;;;;15.13;97.05;95170.91;4327856;32;20206;-65
2023/08/31 06:43:40;;;;;;;0.70;0.70;;;;;;;15.13;96.89;95189.63;4329400;32;20185;-65
2023/08/31 06:46:06;;;;;;;0.60;0.60;;;;;;;15.22;95.78;95189.53;4331126;32;20186;-65
2023/08/31 06:48:31;;;;;;;1.20;1.10;;;;;;;15.18;95.75;95188.62;4332012;32;20206;-65
2023/08/31 06:50:56;;;;;;;0.50;0.50;;;;;;;15.28;94.42;95188.25;4331253;32;20260;-65
2023/08/31 06:53:21;;;;;;;0.90;0.90;;;;;;;15.29;93.86;95189.81;4336235;32;20349;-65
2023/08/31 06:55:47;;;;;;;0.77;0.77;;;;;;;15.22;94.08;95186.09;4328275;32;20228;-65
2023/08/31 06:58:12;;;;;;;1.07;0.90;;;;;;;15.11;94.07;95186.47;4328194;32;20197;-64
2023/08/31 07:00:38;;;;;;;0.83;0.83;;;;;;;15.24;93.32;95197.22;4329968;32;20182;-64
2023/08/31 07:03:05;;;;;;;0.80;0.80;;;;;;;15.21;93.62;95195.22;4330028;32;20276;-65
2023/08/31 07:05:35;;;;;;;0.60;0.60;;;;;;;15.13;94.28;95197.63;4332663;32;20189;-64
2023/08/31 07:08:00;;;;;;;0.87;0.87;;;;;;;15.15;93.92;95197.31;4328790;33;20190;-64
2023/08/31 07:10:26;;;;;;;0.43;0.43;;;;;;;15.08;95.65;95197.03;4331182;32;20189;-64
2023/08/31 07:12:51;;;;;;;0.67;0.67;;;;;;;15.20;94.39;95198.97;4332571;32;20293;-64
2023/08/31 07:15:16;;;;;;;0.50;0.50;;;;;;;15.07;95.57;95206.94;4331136;32;20200;-65
2023/08/31 07:17:42;;;;;;;0.93;0.93;;;;;;;15.13;95.77;95208.31;4331221;32;20194;-65
2023/08/31 07:20:08;;;;;;;0.50;0.50;;;;;;;15.08;95.66;95207.72;4331552;32;20200;-65
2023/08/31 07:22:34;;;;;;;0.60;0.60;;;;;;;15.08;95.28;95205.84;4327061;32;20248;-65
2023/08/31 07:24:59;;;;;;;0.43;0.43;;;;;;;15.31;93.03;95208.19;4332612;32;20304;-64
2023/08/31 07:27:25;;;;;;;1.57;1.47;;;;;;;15.20;93.91;95207.00;4326745;32;20203;-65
2023/08/31 07:29:50;;;;;;;0.80;0.77;;;;;;;15.17;94.08;95221.03;4327706;32;20193;-65
2023/08/31 07:32:16;;;;;;;2.27;1.03;;;;;;;15.35;93.15;95220.59;4326279;32;20232;-64
2023/08/31 07:34:41;;;;;;;0.50;0.50;;;;;;;15.45;92.56;95219.41;4318590;32;20198;-64
2023/08/31 07:37:06;;;;;;;0.70;0.70;;;;;;;15.42;94.01;95220.06;4317622;32;20200;-65
2023/08/31 07:39:32;;;;;;;1.60;1.10;;;;;;;15.39;93.75;95232.19;4327391;32;20190;-65
2023/08/31 07:41:59;;;;;;;1.10;1.00;;;;;;;15.31;94.19;95235.72;4321505;32;20194;-65
2023/08/31 07:44:24;;;;;;;0.77;0.77;;;;;;;15.36;93.29;95242.75;4333676;32;20197;-64
2023/08/31 07:46:49;;;;;;;7.33;0.77;;;;;;;15.49;92.74;95233.69;4333716;32;20277;-64
2023/08/31 07:49:15;;;;;;;1.50;1.20;;;;;;;15.59;91.36;95249.38;4324775;32;20240;-65
2023/08/31 07:51:40;;;;;;;0.50;0.50;;;;;;;15.45;92.81;95240.78;4337561;32;20364;-64
2023/08/31 07:54:05;;;;;;;0.33;0.33;;;;;;;15.52;92.63;95248.31;4316686;32;20240;-64
2023/08/31 07:56:31;;;;;;;1.37;0.93;;;;;;;15.55;92.74;95248.44;4331473;32;20206;-64
2023/08/31 07:58:56;;;;;;;0.67;0.67;;;;;;;15.57;92.89;95243.59;4335456;32;20233;-65
2023/08/31 08:01:21;;;;;;;2.00;1.00;;;;;;;15.48;94.59;95232.91;4319622;32;20289;-64
2023/08/31 08:03:47;;;;;;;0.40;0.40;;;;;;;15.63;93.17;95242.25;4317090;32;20231;-65
2023/08/31 08:06:12;;;;;;;0.80;0.80;;;;;;;15.65;92.57;95248.06;4316553;32;20298;-64
2023/08/31 08:08:37;;;;;;;9.73;1.53;;;;;;;15.70;91.90;95242.53;4338670;32;20189;-65
2023/08/31 08:11:04;;;;;;;0.63;0.63;;;;;;;15.71;91.62;95235.28;4317777;32;20212;-65
2023/08/31 08:13:29;;;;;;;0.47;0.47;;;;;;;15.74;90.95;95239.97;4333460;32;20186;-65
2023/08/31 08:15:55;;;;;;;0.53;0.53;;;;;;;15.75;91.48;95233.53;4320403;32;20186;-65
2023/08/31 08:18:20;;;;;;;0.60;0.60;;;;;;;15.80;89.52;95234.09;4325949;32;20178;-65
2023/08/31 08:20:50;;;;;;;0.27;0.27;;;;;;;15.81;90.17;95243.69;4339150;32;20252;-65
2023/08/31 08:23:15;;;;;;;2.27;2.10;;;;;;;15.95;89.71;95246.09;4339779;32;20200;-65
2023/08/31 08:25:41;;;;;;;3.80;1.67;;;;;;;16.02;89.03;95250.88;4330928;32;20185;-65
2023/08/31 08:28:06;;;;;;;0.93;0.93;;;;;;;16.07;89.37;95254.16;4338368;32;20190;-65
2023/08/31 08:30:31;;;;;;;0.73;0.70;;;;;;;16.06;89.16;95259.84;4329491;32;20193;-65
2023/08/31 08:32:58;;;;;;;0.50;0.50;;;;;;;16.00;88.94;95277.22;4319549;32;20193;-64
2023/08/31 08:35:24;;;;;;;0.90;0.90;;;;;;;15.94;89.08;95276.63;4318661;32;20205;-64
2023/08/31 08:37:49;;;;;;;0.60;0.60;;;;;;;15.94;88.80;95279.31;4322726;32;20206;-65
2023/08/31 08:40:14;;;;;;;0.97;0.97;;;;;;;15.91;88.73;95285.31;4333637;32;20195;-65
2023/08/31 08:42:44;;;;;;;0.50;0.50;;;;;;;15.90;88.41;95282.97;4324418;32;20208;-65
2023/08/31 08:45:15;;;;;;;0.63;0.63;;;;;;;15.93;88.69;95282.31;4324982;32;20205;-65
2023/08/31 08:47:42;;;;;;;5.23;0.87;;;;;;;15.97;87.75;95278.66;4323801;32;20213;-65
2023/08/31 08:50:08;;;;;;;0.20;0.20;;;;;;;16.07;87.41;95280.91;4343562;32;20186;-65
2023/08/31 08:52:34;;;;;;;0.60;0.60;;;;;;;16.13;87.36;95281.50;4318339;32;20208;-65
2023/08/31 08:55:02;;;;;;;0.47;0.47;;;;;;;16.04;88.37;95280.78;4327096;32;20194;-65
2023/08/31 08:57:28;;;;;;;0.90;0.90;;;;;;;16.23;86.54;95272.25;4325540;32;20194;-65
2023/08/31 08:59:53;;;;;;;0.57;0.57;;;;;;;16.15;86.05;95273.94;4333569;32;20239;-65
2023/08/31 09:02:18;;;;;;;1.47;0.70;;;;;;;16.30;84.30;95269.84;4337829;32;20232;-65
2023/08/31 09:04:44;;;;;;;0.37;0.37;;;;;;;16.35;84.03;95278.44;4326890;32;20291;-65
2023/08/31 09:07:09;;;;;;;0.30;0.30;;;;;;;16.48;84.01;95282.72;4326633;32;20217;-64
2023/08/31 09:09:54;;;;;;;1.00;0.70;;;;;;;16.44;81.90;95284.47;4332815;32;20215;-65
2023/08/31 09:12:23;;;;;;;1.40;0.73;;;;;;;16.61;80.57;95278.19;4331467;32;20259;-65
2023/08/31 09:15:01;;;;;;;0.37;0.37;;;;;;;16.46;80.43;95294.88;4335100;32;20186;-65
2023/08/31 09:17:39;;;;;;;0.50;0.50;;;;;;;16.39;80.75;95295.44;4333047;32;20230;-65
2023/08/31 09:20:05;;;;;;;1.23;0.90;;;;;;;16.39;81.93;95294.66;4334982;32;20248;-64
2023/08/31 09:22:32;;;;;;;0.60;0.60;;;;;;;16.49;81.03;95299.56;4332011;32;20249;-65
2023/08/31 09:24:58;;;;;;;0.60;0.60;;;;;;;16.52;79.95;95303.47;4328548;32;20268;-65
2023/08/31 09:27:24;;;;;;;0.20;0.20;;;;;;;16.54;80.07;95304.72;4329812;32;20206;-65
2023/08/31 09:29:50;;;;;;;0.77;0.77;;;;;;;16.56;79.20;95307.06;4335414;32;20190;-65
2023/08/31 09:32:19;;;;;;;0.70;0.70;;;;;;;16.60;80.49;95299.94;4322471;32;20247;-65
2023/08/31 09:34:45;;;;;;;0.77;0.73;;;;;;;16.61;80.54;95304.19;4335042;32;20256;-65
2023/08/31 09:37:10;;;;;;;0.73;0.73;;;;;;;16.69;79.83;95301.44;4324522;32;20219;-65
2023/08/31 09:39:37;;;;;;;0.30;0.27;;;;;;;16.71;80.10;95295.75;4329286;32;20285;-65
2023/08/31 09:42:03;;;;;;;0.70;0.70;;;;;;;16.80;78.90;95291.06;4316112;33;20202;-65
2023/08/31 09:44:29;;;;;;;0.40;0.40;;;;;;;16.79;80.14;95306.37;4316984;33;20182;-65
2023/08/31 09:46:54;;;;;;;0.80;0.80;;;;;;;17.02;78.58;95295.22;4317366;33;20205;-65
2023/08/31 09:49:21;;;;;;;0.20;0.20;;;;;;;17.02;79.51;95298.69;4316684;33;20253;-65
2023/08/31 09:51:48;;;;;;;1.80;0.77;;;;;;;16.96;78.07;95302.69;4317674;33;20200;-65
2023/08/31 09:54:15;;;;;;;0.80;0.80;;;;;;;16.97;78.63;95298.91;4317157;33;20317;-65
2023/08/31 09:56:45;;;;;;;0.63;0.63;;;;;;;17.06;79.95;95307.59;4314182;33;20208;-65
2023/08/31 09:59:12;;;;;;;0.67;0.67;;;;;;;17.09;79.52;95295.44;4317150;33;20190;-65
2023/08/31 10:01:39;;;;;;;0.60;0.60;;;;;;;16.91;79.29;95299.44;4317847;33;20190;-65
2023/08/31 10:04:07;;;;;;;1.03;1.03;;;;;;;17.01;79.73;95299.03;4317581;33;20253;-65
2023/08/31 10:06:33;;;;;;;1.13;0.73;;;;;;;17.03;78.40;95296.81;4317226;33;20186;-65
2023/08/31 10:08:59;;;;;;;0.40;0.40;;;;;;;16.96;78.83;95291.97;4319640;33;20233;-65
2023/08/31 10:11:27;;;;;;;0.70;0.70;;;;;;;16.94;78.75;95294.22;4317809;33;20209;-65
2023/08/31 10:13:54;;;;;;;0.43;0.43;;;;;;;16.86;79.39;95292.41;4303301;33;20329;-65
2023/08/31 10:16:21;;;;;;;4.27;0.87;;;;;;;16.95;79.54;95293.09;4313677;33;20218;-65
2023/08/31 10:18:47;;;;;;;0.30;0.30;;;;;;;16.96;79.84;95294.66;4313288;33;20316;-65
2023/08/31 10:21:16;;;;;;;0.73;0.73;;;;;;;17.05;77.65;95283.81;4314902;33;20190;-65
2023/08/31 10:23:45;;;;;;;1.00;1.00;;;;;;;16.97;77.85;95290.87;4317347;33;20198;-65
2023/08/31 10:26:11;;;;;;;4.57;0.50;;;;;;;16.94;78.31;95283.50;4317254;33;20194;-66
2023/08/31 10:28:41;;;;;;;1.70;0.90;;;;;;;16.89;78.39;95288.28;4317073;33;20277;-65
2023/08/31 10:31:17;;;;;;;0.70;0.70;;;;;;;16.94;77.92;95294.22;4315645;33;20209;-65
2023/08/31 10:33:43;;;;;;;0.40;0.40;;;;;;;16.92;78.43;95291.09;4317588;33;20186;-65
2023/08/31 10:36:18;;;;;;;3.03;0.70;;;;;;;17.08;77.95;95278.56;4316942;33;20237;-65
2023/08/31 10:39:16;;;;;;;2.67;0.93;;;;;;;17.12;77.84;95284.06;4317299;33;20181;-65
2023/08/31 10:41:42;;;;;;;0.33;0.33;;;;;;;17.06;77.43;95291.53;4320282;32;20252;-65
2023/08/31 10:44:28;;;;;;;0.57;0.57;;;;;;;17.01;77.69;95299.03;4327897;32;20217;-65
2023/08/31 10:46:54;;;;;;;0.73;0.73;;;;;;;16.94;78.04;95296.88;4330592;32;20269;-65
2023/08/31 10:49:21;;;;;;;0.27;0.27;;;;;;;16.84;77.96;95290.06;4336393;32;20200;-65
2023/08/31 10:51:49;;;;;;;0.43;0.43;;;;;;;16.81;78.86;95282.72;4330408;32;20192;-65
2023/08/31 10:54:25;;;;;;;0.30;0.30;;;;;;;16.89;76.80;95283.69;4330832;32;20244;-65
2023/08/31 10:56:57;;;;;;;1.03;0.90;;;;;;;16.87;78.45;95283.25;4327183;32;20190;-65
2023/08/31 10:59:25;;;;;;;0.67;0.67;;;;;;;16.74;78.86;95287.03;4329838;32;20268;-64
2023/08/31 11:01:56;;;;;;;0.93;0.93;;;;;;;16.77;79.45;95286.38;4331518;32;20206;-65
2023/08/31 11:04:27;;;;;;;0.47;0.47;;;;;;;16.74;80.75;95287.03;4331307;32;23155;-64
2023/08/31 11:07:11;;;;;;;0.30;0.30;;;;;;;16.69;81.04;95288.03;4329690;32;20277;-65
2023/08/31 11:09:36;;;;;;;0.40;0.40;;;;;;;16.84;80.20;95289.28;4328210;32;20248;-65
2023/08/31 11:12:03;;;;;;;0.77;0.77;;;;;;;16.88;80.92;95284.81;4332920;32;20224;-65
2023/08/31 11:14:28;;;;;;;0.50;0.50;;;;;;;16.84;79.91;95289.28;4332304;32;20201;-65
2023/08/31 11:16:55;;;;;;;0.37;0.37;;;;;;;16.94;80.86;95290.75;4330832;32;20208;-66
2023/08/31 11:19:20;;;;;;;0.40;0.40;;;;;;;16.84;79.51;95290.06;4317095;32;20224;-65
2023/08/31 11:21:45;;;;;;;0.43;0.43;;;;;;;16.69;78.12;95308.69;4317812;32;20194;-66
2023/08/31 11:24:11;;;;;;;0.83;0.80;;;;;;;16.73;80.14;95294.31;4331416;32;20193;-66
2023/08/31 11:26:37;;;;;;;2.43;1.10;;;;;;;16.87;77.20;95293.19;4327558;32;20194;-66
2023/08/31 11:29:06;;;;;;;0.50;0.37;;;;;;;16.71;78.00;95296.53;4331124;32;20203;-65
2023/08/31 11:31:31;;;;;;;0.53;0.53;;;;;;;16.73;77.94;95306.91;4319324;32;20224;-65